Bachu, China
Current Conditions -  °F | °C
As of 2:00 AM on Thursday 29 Jan 2015 (Local Time) from ZWSH Reporting Station
Light Snow Light Snow  
Wind Chill: 17°   Ceiling: 2500
Heat Index: 23°   Visibility: 0.62mi
Dew Point: 21°   Wind: 4mph
Humidity: 93%   Direction: 70°ENE
Pressure: 30.27"   Gusts: NA
Location:  39.8°N, 78.57°E
Report Text: ZWSH 281800Z 07002MPS 1000 -SN BR OVC025 M05/M06 Q1025 NOSIG
Loading
Personal Weather Stations






























Interactive Weather Map New forecast layout! Learn more

10-Day Weather Forecast

Advertisements
Track Severe Weather on mobile